sensor_id;sensor_type;location;lat;lon;timestamp;pressure;altitude;pressure_sealevel;temperature;humidity
63903;BME280;50072;50.678;13.938;2023-03-23T00:01:37;98919.88;;;9.18;74.61
63903;BME280;50072;50.678;13.938;2023-03-23T00:04:03;98920.53;;;9.26;74.27
63903;BME280;50072;50.678;13.938;2023-03-23T00:06:29;98922.28;;;9.27;74.55
63903;BME280;50072;50.678;13.938;2023-03-23T00:08:58;98917.56;;;9.35;73.79
63903;BME280;50072;50.678;13.938;2023-03-23T00:11:30;98921.00;;;9.39;73.34
63903;BME280;50072;50.678;13.938;2023-03-23T00:14:04;98926.69;;;9.28;74.23
63903;BME280;50072;50.678;13.938;2023-03-23T00:16:40;98929.50;;;9.23;73.94
63903;BME280;50072;50.678;13.938;2023-03-23T00:19:13;98918.69;;;9.28;73.23
63903;BME280;50072;50.678;13.938;2023-03-23T00:21:41;98919.28;;;9.36;73.65
63903;BME280;50072;50.678;13.938;2023-03-23T00:24:12;98929.97;;;9.36;72.70
63903;BME280;50072;50.678;13.938;2023-03-23T00:26:45;98923.03;;;9.32;74.16
63903;BME280;50072;50.678;13.938;2023-03-23T00:29:17;98922.50;;;9.47;74.38
63903;BME280;50072;50.678;13.938;2023-03-23T00:31:50;98924.25;;;9.48;76.30
63903;BME280;50072;50.678;13.938;2023-03-23T00:34:22;98926.19;;;9.43;77.62
63903;BME280;50072;50.678;13.938;2023-03-23T00:36:56;98923.22;;;9.53;77.57
63903;BME280;50072;50.678;13.938;2023-03-23T00:39:40;98920.78;;;9.46;78.91
63903;BME280;50072;50.678;13.938;2023-03-23T00:42:09;98913.47;;;9.52;79.70
63903;BME280;50072;50.678;13.938;2023-03-23T00:44:43;98907.31;;;9.49;81.99
63903;BME280;50072;50.678;13.938;2023-03-23T00:47:12;98908.06;;;9.53;81.26
63903;BME280;50072;50.678;13.938;2023-03-23T00:49:39;98899.28;;;9.49;81.84
63903;BME280;50072;50.678;13.938;2023-03-23T00:52:12;98899.19;;;9.53;82.75
63903;BME280;50072;50.678;13.938;2023-03-23T00:54:40;98902.66;;;9.55;83.47
63903;BME280;50072;50.678;13.938;2023-03-23T00:57:13;98896.56;;;9.51;84.17
63903;BME280;50072;50.678;13.938;2023-03-23T00:59:40;98906.28;;;9.54;83.49
63903;BME280;50072;50.678;13.938;2023-03-23T01:02:10;98902.66;;;9.55;83.12
63903;BME280;50072;50.678;13.938;2023-03-23T01:04:40;98891.00;;;9.57;83.22
63903;BME280;50072;50.678;13.938;2023-03-23T01:07:16;98892.56;;;9.64;81.59
63903;BME280;50072;50.678;13.938;2023-03-23T01:09:49;98894.41;;;9.62;82.61
63903;BME280;50072;50.678;13.938;2023-03-23T01:12:25;98893.44;;;9.65;83.44
63903;BME280;50072;50.678;13.938;2023-03-23T01:15:06;98886.34;;;9.64;82.52
63903;BME280;50072;50.678;13.938;2023-03-23T01:17:44;98878.00;;;9.73;82.38
63903;BME280;50072;50.678;13.938;2023-03-23T01:20:14;98871.06;;;9.67;82.86
63903;BME280;50072;50.678;13.938;2023-03-23T01:22:41;98870.22;;;9.67;82.71
63903;BME280;50072;50.678;13.938;2023-03-23T01:25:14;98860.94;;;9.77;81.85
63903;BME280;50072;50.678;13.938;2023-03-23T01:27:41;98870.25;;;9.65;82.90
63903;BME280;50072;50.678;13.938;2023-03-23T01:30:11;98862.09;;;9.70;82.83
63903;BME280;50072;50.678;13.938;2023-03-23T01:32:43;98867.88;;;9.58;82.75
63903;BME280;50072;50.678;13.938;2023-03-23T01:35:13;98863.66;;;9.50;82.77
63903;BME280;50072;50.678;13.938;2023-03-23T01:37:41;98862.97;;;9.44;82.36
63903;BME280;50072;50.678;13.938;2023-03-23T01:40:10;98862.31;;;9.37;83.12
63903;BME280;50072;50.678;13.938;2023-03-23T01:42:38;98857.28;;;9.28;83.60
63903;BME280;50072;50.678;13.938;2023-03-23T01:45:27;98851.03;;;9.27;84.10
63903;BME280;50072;50.678;13.938;2023-03-23T01:48:09;98849.88;;;9.36;83.98
63903;BME280;50072;50.678;13.938;2023-03-23T01:50:43;98840.13;;;9.35;85.09
63903;BME280;50072;50.678;13.938;2023-03-23T01:53:11;98834.56;;;9.41;85.98
63903;BME280;50072;50.678;13.938;2023-03-23T01:55:43;98834.41;;;9.46;85.86
63903;BME280;50072;50.678;13.938;2023-03-23T01:58:09;98830.16;;;9.40;86.42
63903;BME280;50072;50.678;13.938;2023-03-23T02:00:43;98824.06;;;9.37;86.53
63903;BME280;50072;50.678;13.938;2023-03-23T02:03:15;98823.16;;;9.36;85.99
63903;BME280;50072;50.678;13.938;2023-03-23T02:05:43;98817.13;;;9.31;84.54
63903;BME280;50072;50.678;13.938;2023-03-23T02:08:11;98822.47;;;9.31;83.81
63903;BME280;50072;50.678;13.938;2023-03-23T02:10:43;98818.44;;;9.18;85.68
63903;BME280;50072;50.678;13.938;2023-03-23T02:13:11;98830.34;;;9.07;86.68
63903;BME280;50072;50.678;13.938;2023-03-23T02:21:26;98826.75;;;9.08;87.96
63903;BME280;50072;50.678;13.938;2023-03-23T02:24:28;98820.78;;;9.00;87.86
63903;BME280;50072;50.678;13.938;2023-03-23T02:39:12;98826.66;;;9.11;89.53
63903;BME280;50072;50.678;13.938;2023-03-23T02:41:49;98823.81;;;9.16;88.47
63903;BME280;50072;50.678;13.938;2023-03-23T02:44:17;98825.63;;;9.15;88.59
63903;BME280;50072;50.678;13.938;2023-03-23T02:46:45;98811.66;;;9.07;89.10
63903;BME280;50072;50.678;13.938;2023-03-23T02:49:15;98815.94;;;9.13;88.52
63903;BME280;50072;50.678;13.938;2023-03-23T02:51:46;98808.06;;;9.08;88.70
63903;BME280;50072;50.678;13.938;2023-03-23T02:54:18;98797.28;;;9.11;88.58
63903;BME280;50072;50.678;13.938;2023-03-23T02:57:07;98797.19;;;9.14;88.79
63903;BME280;50072;50.678;13.938;2023-03-23T02:59:35;98801.56;;;9.17;88.70
63903;BME280;50072;50.678;13.938;2023-03-23T03:02:07;98795.19;;;9.21;89.37
63903;BME280;50072;50.678;13.938;2023-03-23T03:04:40;98803.31;;;9.18;90.88
63903;BME280;50072;50.678;13.938;2023-03-23T03:09:58;98804.78;;;9.27;90.34
63903;BME280;50072;50.678;13.938;2023-03-23T03:15:45;98804.16;;;9.19;90.94
63903;BME280;50072;50.678;13.938;2023-03-23T03:21:12;98807.75;;;9.18;91.65
63903;BME280;50072;50.678;13.938;2023-03-23T03:23:42;98808.59;;;9.20;91.73
63903;BME280;50072;50.678;13.938;2023-03-23T03:26:11;98806.22;;;9.10;92.08
63903;BME280;50072;50.678;13.938;2023-03-23T03:28:44;98801.09;;;9.04;92.06
63903;BME280;50072;50.678;13.938;2023-03-23T03:31:15;98807.41;;;9.02;91.56
63903;BME280;50072;50.678;13.938;2023-03-23T03:33:42;98810.31;;;8.94;91.16
63903;BME280;50072;50.678;13.938;2023-03-23T03:36:15;98809.16;;;9.03;90.78
63903;BME280;50072;50.678;13.938;2023-03-23T03:38:47;98806.63;;;8.98;91.08
63903;BME280;50072;50.678;13.938;2023-03-23T03:41:14;98810.91;;;9.04;90.95
63903;BME280;50072;50.678;13.938;2023-03-23T03:43:40;98813.63;;;9.02;91.86
63903;BME280;50072;50.678;13.938;2023-03-23T03:46:06;98804.69;;;9.03;91.69
63903;BME280;50072;50.678;13.938;2023-03-23T03:48:34;98804.69;;;9.03;91.66
63903;BME280;50072;50.678;13.938;2023-03-23T03:51:00;98812.03;;;8.96;91.75
63903;BME280;50072;50.678;13.938;2023-03-23T03:53:27;98804.25;;;8.89;91.89
63903;BME280;50072;50.678;13.938;2023-03-23T03:55:53;98810.72;;;8.81;92.99
63903;BME280;50072;50.678;13.938;2023-03-23T03:58:26;98811.78;;;8.76;93.53
63903;BME280;50072;50.678;13.938;2023-03-23T04:01:00;98821.59;;;8.75;93.45
63903;BME280;50072;50.678;13.938;2023-03-23T04:03:26;98823.72;;;8.64;93.97
63903;BME280;50072;50.678;13.938;2023-03-23T04:05:57;98821.16;;;8.61;94.76
63903;BME280;50072;50.678;13.938;2023-03-23T04:08:26;98809.63;;;8.59;95.44
63903;BME280;50072;50.678;13.938;2023-03-23T04:10:59;98814.00;;;8.61;95.35
63903;BME280;50072;50.678;13.938;2023-03-23T04:13:35;98814.75;;;8.67;95.66
63903;BME280;50072;50.678;13.938;2023-03-23T04:16:10;98818.06;;;8.73;95.81
63903;BME280;50072;50.678;13.938;2023-03-23T04:18:41;98804.69;;;8.75;95.52
63903;BME280;50072;50.678;13.938;2023-03-23T04:21:10;98806.75;;;8.67;94.69
63903;BME280;50072;50.678;13.938;2023-03-23T04:23:38;98809.78;;;8.83;94.02
63903;BME280;50072;50.678;13.938;2023-03-23T04:26:10;98814.44;;;8.76;94.00
63903;BME280;50072;50.678;13.938;2023-03-23T04:28:43;98807.59;;;8.67;93.67
63903;BME280;50072;50.678;13.938;2023-03-23T04:31:10;98809.97;;;8.76;93.34
63903;BME280;50072;50.678;13.938;2023-03-23T04:33:38;98808.19;;;8.77;93.60
63903;BME280;50072;50.678;13.938;2023-03-23T04:36:10;98800.13;;;8.78;93.67
63903;BME280;50072;50.678;13.938;2023-03-23T04:38:38;98801.97;;;8.76;93.65
63903;BME280;50072;50.678;13.938;2023-03-23T04:41:10;98793.34;;;8.68;93.71
63903;BME280;50072;50.678;13.938;2023-03-23T04:43:42;98795.19;;;8.66;93.99
63903;BME280;50072;50.678;13.938;2023-03-23T04:46:09;98801.63;;;8.59;94.74
63903;BME280;50072;50.678;13.938;2023-03-23T04:48:40;98804.41;;;8.56;95.24
63903;BME280;50072;50.678;13.938;2023-03-23T04:51:13;98802.28;;;8.67;95.14
63903;BME280;50072;50.678;13.938;2023-03-23T04:53:39;98795.22;;;8.64;94.56
63903;BME280;50072;50.678;13.938;2023-03-23T04:56:07;98797.50;;;8.49;95.30
63903;BME280;50072;50.678;13.938;2023-03-23T04:58:38;98783.38;;;8.45;94.91
63903;BME280;50072;50.678;13.938;2023-03-23T05:01:05;98791.16;;;8.53;94.54
63903;BME280;50072;50.678;13.938;2023-03-23T05:03:31;98779.47;;;8.57;94.31
63903;BME280;50072;50.678;13.938;2023-03-23T05:06:01;98780.53;;;8.51;93.82
63903;BME280;50072;50.678;13.938;2023-03-23T05:08:27;98778.94;;;8.45;94.12
63903;BME280;50072;50.678;13.938;2023-03-23T05:10:55;98771.66;;;8.51;93.10
63903;BME280;50072;50.678;13.938;2023-03-23T05:13:21;98782.69;;;8.68;93.10
63903;BME280;50072;50.678;13.938;2023-03-23T05:15:48;98790.78;;;8.65;92.66
63903;BME280;50072;50.678;13.938;2023-03-23T05:18:16;98799.28;;;8.76;92.92
63903;BME280;50072;50.678;13.938;2023-03-23T05:20:42;98807.28;;;8.78;93.94
63903;BME280;50072;50.678;13.938;2023-03-23T05:23:09;98803.50;;;8.85;93.46
63903;BME280;50072;50.678;13.938;2023-03-23T05:25:36;98800.88;;;8.84;93.26
63903;BME280;50072;50.678;13.938;2023-03-23T05:28:09;98796.03;;;8.95;92.85
63903;BME280;50072;50.678;13.938;2023-03-23T05:30:38;98799.59;;;8.95;92.00
63903;BME280;50072;50.678;13.938;2023-03-23T05:33:04;98797.63;;;9.02;90.81
63903;BME280;50072;50.678;13.938;2023-03-23T05:35:30;98792.16;;;9.05;89.58
63903;BME280;50072;50.678;13.938;2023-03-23T05:37:57;98796.38;;;9.12;89.23
63903;BME280;50072;50.678;13.938;2023-03-23T05:40:25;98800.59;;;9.20;89.78
63903;BME280;50072;50.678;13.938;2023-03-23T05:42:53;98797.59;;;9.29;89.25
63903;BME280;50072;50.678;13.938;2023-03-23T05:45:21;98807.25;;;9.33;89.00
63903;BME280;50072;50.678;13.938;2023-03-23T05:47:49;98798.94;;;9.42;86.22
63903;BME280;50072;50.678;13.938;2023-03-23T05:50:18;98806.84;;;9.45;86.87
63903;BME280;50072;50.678;13.938;2023-03-23T05:52:44;98798.59;;;9.52;87.39
63903;BME280;50072;50.678;13.938;2023-03-23T05:55:11;98804.25;;;9.69;84.78
63903;BME280;50072;50.678;13.938;2023-03-23T05:57:38;98806.13;;;9.65;85.66
63903;BME280;50072;50.678;13.938;2023-03-23T06:00:05;98804.25;;;9.69;85.90
63903;BME280;50072;50.678;13.938;2023-03-23T06:03:00;98810.22;;;9.76;84.76
63903;BME280;50072;50.678;13.938;2023-03-23T06:05:43;98808.22;;;9.82;85.87
63903;BME280;50072;50.678;13.938;2023-03-23T06:08:11;98808.47;;;10.00;86.76
63903;BME280;50072;50.678;13.938;2023-03-23T06:10:38;98803.66;;;10.10;85.87
63903;BME280;50072;50.678;13.938;2023-03-23T06:13:12;98805.94;;;10.21;85.18
63903;BME280;50072;50.678;13.938;2023-03-23T06:15:40;98814.03;;;10.19;84.66
63903;BME280;50072;50.678;13.938;2023-03-23T06:18:10;98808.81;;;10.14;85.28
63903;BME280;50072;50.678;13.938;2023-03-23T06:20:40;98810.59;;;10.15;85.27
63903;BME280;50072;50.678;13.938;2023-03-23T06:23:13;98814.03;;;10.19;84.27
63903;BME280;50072;50.678;13.938;2023-03-23T06:25:44;98809.00;;;10.10;84.79
63903;BME280;50072;50.678;13.938;2023-03-23T06:28:10;98802.69;;;10.12;85.30
63903;BME280;50072;50.678;13.938;2023-03-23T06:30:43;98803.53;;;10.13;84.35
63903;BME280;50072;50.678;13.938;2023-03-23T06:33:10;98798.97;;;10.16;84.45
63903;BME280;50072;50.678;13.938;2023-03-23T06:35:43;98791.41;;;10.28;83.97
63903;BME280;50072;50.678;13.938;2023-03-23T06:38:09;98792.00;;;10.36;83.65
63903;BME280;50072;50.678;13.938;2023-03-23T06:40:40;98795.09;;;10.49;83.01
63903;BME280;50072;50.678;13.938;2023-03-23T06:43:13;98800.94;;;10.59;82.18
63903;BME280;50072;50.678;13.938;2023-03-23T06:45:42;98792.19;;;10.77;81.50
63903;BME280;50072;50.678;13.938;2023-03-23T06:48:08;98790.66;;;10.94;79.20
63903;BME280;50072;50.678;13.938;2023-03-23T06:50:44;98806.81;;;11.13;77.31
63903;BME280;50072;50.678;13.938;2023-03-23T06:53:13;98801.41;;;11.14;78.24
63903;BME280;50072;50.678;13.938;2023-03-23T06:55:43;98806.59;;;11.19;76.40
63903;BME280;50072;50.678;13.938;2023-03-23T06:58:10;98802.25;;;11.37;76.13
63903;BME280;50072;50.678;13.938;2023-03-23T07:00:40;98809.63;;;11.52;75.73
63903;BME280;50072;50.678;13.938;2023-03-23T07:03:10;98812.59;;;11.67;74.90
63903;BME280;50072;50.678;13.938;2023-03-23T07:05:45;98812.84;;;11.81;75.17
63903;BME280;50072;50.678;13.938;2023-03-23T07:08:11;98813.19;;;11.96;73.88
63903;BME280;50072;50.678;13.938;2023-03-23T07:10:43;98818.97;;;12.05;72.45
63903;BME280;50072;50.678;13.938;2023-03-23T07:13:10;98815.06;;;12.13;72.98
63903;BME280;50072;50.678;13.938;2023-03-23T07:15:43;98827.41;;;12.17;72.72
63903;BME280;50072;50.678;13.938;2023-03-23T07:18:10;98826.78;;;12.31;72.80
63903;BME280;50072;50.678;13.938;2023-03-23T07:20:40;98825.56;;;12.38;72.40
63903;BME280;50072;50.678;13.938;2023-03-23T07:23:13;98824.56;;;12.40;72.23
63903;BME280;50072;50.678;13.938;2023-03-23T07:25:39;98831.22;;;12.51;71.91
63903;BME280;50072;50.678;13.938;2023-03-23T07:28:08;98828.03;;;12.42;72.66
63903;BME280;50072;50.678;13.938;2023-03-23T07:30:40;98825.84;;;12.32;71.76
63903;BME280;50072;50.678;13.938;2023-03-23T07:33:13;98819.03;;;12.24;71.84
63903;BME280;50072;50.678;13.938;2023-03-23T07:35:40;98814.19;;;12.33;72.37
63903;BME280;50072;50.678;13.938;2023-03-23T07:38:09;98824.56;;;12.40;72.63
63903;BME280;50072;50.678;13.938;2023-03-23T07:40:40;98835.59;;;12.91;72.19
63903;BME280;50072;50.678;13.938;2023-03-23T07:43:12;98829.22;;;13.30;71.82
63903;BME280;50072;50.678;13.938;2023-03-23T07:45:44;98834.66;;;13.66;69.18
63903;BME280;50072;50.678;13.938;2023-03-23T07:48:10;98830.81;;;14.22;67.15
63903;BME280;50072;50.678;13.938;2023-03-23T07:50:42;98839.91;;;14.53;63.01
63903;BME280;50072;50.678;13.938;2023-03-23T07:53:10;98838.84;;;14.73;62.67
63903;BME280;50072;50.678;13.938;2023-03-23T07:55:42;98835.41;;;14.87;60.90
63903;BME280;50072;50.678;13.938;2023-03-23T07:58:10;98835.50;;;14.86;60.48
63903;BME280;50072;50.678;13.938;2023-03-23T08:00:39;98824.19;;;14.95;59.48
63903;BME280;50072;50.678;13.938;2023-03-23T08:03:05;98831.47;;;15.09;58.71
63903;BME280;50072;50.678;13.938;2023-03-23T08:05:38;98831.22;;;15.13;57.18
63903;BME280;50072;50.678;13.938;2023-03-23T08:08:10;98840.69;;;15.05;57.44
63903;BME280;50072;50.678;13.938;2023-03-23T08:10:40;98838.88;;;15.05;57.98
63903;BME280;50072;50.678;13.938;2023-03-23T08:13:15;98845.06;;;14.91;57.94
63903;BME280;50072;50.678;13.938;2023-03-23T08:15:42;98841.41;;;14.92;58.38
63903;BME280;50072;50.678;13.938;2023-03-23T08:18:11;98839.31;;;14.97;58.70
63903;BME280;50072;50.678;13.938;2023-03-23T08:20:38;98832.28;;;15.11;58.16
63903;BME280;50072;50.678;13.938;2023-03-23T08:23:10;98839.81;;;15.20;57.38
63903;BME280;50072;50.678;13.938;2023-03-23T08:25:39;98840.16;;;15.30;55.71
63903;BME280;50072;50.678;13.938;2023-03-23T08:28:11;98837.19;;;15.34;55.81
63903;BME280;50072;50.678;13.938;2023-03-23T08:30:41;98832.59;;;15.36;56.66
63903;BME280;50072;50.678;13.938;2023-03-23T08:33:10;98830.78;;;15.67;56.47
63903;BME280;50072;50.678;13.938;2023-03-23T08:35:43;98830.13;;;15.78;56.31
63903;BME280;50072;50.678;13.938;2023-03-23T08:38:11;98824.22;;;15.87;55.35
63903;BME280;50072;50.678;13.938;2023-03-23T08:40:43;98818.28;;;15.97;55.48
63903;BME280;50072;50.678;13.938;2023-03-23T08:43:10;98821.56;;;16.02;53.89
63903;BME280;50072;50.678;13.938;2023-03-23T08:45:40;98821.38;;;16.05;53.81
63903;BME280;50072;50.678;13.938;2023-03-23T08:48:13;98817.03;;;16.02;53.39
63903;BME280;50072;50.678;13.938;2023-03-23T08:50:40;98816.06;;;16.03;53.36
63903;BME280;50072;50.678;13.938;2023-03-23T08:53:06;98815.13;;;16.33;53.58
63903;BME280;50072;50.678;13.938;2023-03-23T08:55:32;98816.00;;;16.34;53.43
63903;BME280;50072;50.678;13.938;2023-03-23T08:58:13;98819.91;;;16.71;53.98
63903;BME280;50072;50.678;13.938;2023-03-23T09:00:40;98816.38;;;16.71;53.37
63903;BME280;50072;50.678;13.938;2023-03-23T09:03:10;98826.13;;;16.88;51.82
63903;BME280;50072;50.678;13.938;2023-03-23T09:05:36;98822.25;;;16.92;50.31
63903;BME280;50072;50.678;13.938;2023-03-23T09:08:11;98818.19;;;16.85;51.18
63903;BME280;50072;50.678;13.938;2023-03-23T09:10:40;98824.97;;;16.63;50.61
63903;BME280;50072;50.678;13.938;2023-03-23T09:13:10;98815.69;;;16.53;50.85
63903;BME280;50072;50.678;13.938;2023-03-23T09:15:43;98818.78;;;16.61;51.72
63903;BME280;50072;50.678;13.938;2023-03-23T09:18:10;98818.00;;;16.73;52.16
63903;BME280;50072;50.678;13.938;2023-03-23T09:20:43;98813.19;;;16.50;50.77
63903;BME280;50072;50.678;13.938;2023-03-23T09:23:11;98820.44;;;16.35;51.30
63903;BME280;50072;50.678;13.938;2023-03-23T09:25:40;98820.59;;;16.17;51.71
63903;BME280;50072;50.678;13.938;2023-03-23T09:28:06;98815.00;;;16.06;52.08
63903;BME280;50072;50.678;13.938;2023-03-23T09:30:41;98820.59;;;16.17;52.41
63903;BME280;50072;50.678;13.938;2023-03-23T09:33:13;98824.69;;;16.39;52.37
63903;BME280;50072;50.678;13.938;2023-03-23T09:35:41;98821.69;;;16.44;50.73
63903;BME280;50072;50.678;13.938;2023-03-23T09:38:13;98815.13;;;16.62;50.81
63903;BME280;50072;50.678;13.938;2023-03-23T09:40:46;98813.66;;;16.71;51.77
63903;BME280;50072;50.678;13.938;2023-03-23T09:54:25;98818.00;;;16.88;51.51
63903;BME280;50072;50.678;13.938;2023-03-23T09:56:53;98818.31;;;16.69;51.27
63903;BME280;50072;50.678;13.938;2023-03-23T10:02:02;98807.88;;;16.63;52.14
63903;BME280;50072;50.678;13.938;2023-03-23T10:04:35;98811.25;;;16.66;53.44
63903;BME280;50072;50.678;13.938;2023-03-23T10:07:16;98812.13;;;16.67;53.91
63903;BME280;50072;50.678;13.938;2023-03-23T10:09:44;98811.13;;;16.82;54.77
63903;BME280;50072;50.678;13.938;2023-03-23T10:14:57;98807.75;;;17.07;55.33
63903;BME280;50072;50.678;13.938;2023-03-23T10:17:39;98805.47;;;17.14;55.75
63903;BME280;50072;50.678;13.938;2023-03-23T10:22:54;98806.69;;;17.37;55.92
63903;BME280;50072;50.678;13.938;2023-03-23T10:25:24;98804.31;;;17.46;55.60
63903;BME280;50072;50.678;13.938;2023-03-23T10:28:12;98809.00;;;17.56;53.51
63903;BME280;50072;50.678;13.938;2023-03-23T10:30:43;98797.72;;;17.50;54.34
63903;BME280;50072;50.678;13.938;2023-03-23T10:35:57;98797.56;;;17.38;54.10
63903;BME280;50072;50.678;13.938;2023-03-23T10:38:36;98804.88;;;17.23;56.10
63903;BME280;50072;50.678;13.938;2023-03-23T10:41:15;98803.88;;;16.97;56.92
63903;BME280;50072;50.678;13.938;2023-03-23T10:43:43;98804.28;;;16.77;54.92
63903;BME280;50072;50.678;13.938;2023-03-23T10:49:15;98813.97;;;16.66;56.53
63903;BME280;50072;50.678;13.938;2023-03-23T10:51:46;98803.63;;;16.59;54.71
63903;BME280;50072;50.678;13.938;2023-03-23T10:54:26;98806.44;;;16.57;55.51
63903;BME280;50072;50.678;13.938;2023-03-23T10:56:54;98793.34;;;16.36;54.48
63903;BME280;50072;50.678;13.938;2023-03-23T10:59:28;98800.00;;;16.31;55.26
63903;BME280;50072;50.678;13.938;2023-03-23T11:02:02;98798.34;;;16.14;55.26
63903;BME280;50072;50.678;13.938;2023-03-23T11:04:53;98799.00;;;16.17;55.50
63903;BME280;50072;50.678;13.938;2023-03-23T11:07:29;98805.19;;;16.19;55.95
63903;BME280;50072;50.678;13.938;2023-03-23T11:10:21;98799.78;;;16.05;55.85
63903;BME280;50072;50.678;13.938;2023-03-23T11:13:12;98806.25;;;16.31;56.34
63903;BME280;50072;50.678;13.938;2023-03-23T11:15:43;98806.25;;;16.46;54.51
63903;BME280;50072;50.678;13.938;2023-03-23T11:18:17;98808.69;;;16.50;53.88
63903;BME280;50072;50.678;13.938;2023-03-23T11:20:56;98806.25;;;16.46;53.99
63903;BME280;50072;50.678;13.938;2023-03-23T11:23:36;98800.66;;;16.63;53.52
63903;BME280;50072;50.678;13.938;2023-03-23T11:26:24;98793.31;;;16.65;52.53
63903;BME280;50072;50.678;13.938;2023-03-23T11:28:58;98816.25;;;16.72;51.94
63903;BME280;50072;50.678;13.938;2023-03-23T11:31:41;98805.66;;;16.69;51.99
63903;BME280;50072;50.678;13.938;2023-03-23T11:34:17;98792.91;;;16.71;52.41
63903;BME280;50072;50.678;13.938;2023-03-23T11:36:51;98814.25;;;16.90;52.16
63903;BME280;50072;50.678;13.938;2023-03-23T11:41:49;98807.19;;;16.73;52.39
63903;BME280;50072;50.678;13.938;2023-03-23T11:44:17;98803.53;;;16.74;53.03
63903;BME280;50072;50.678;13.938;2023-03-23T11:50:08;98805.25;;;16.76;53.35
63903;BME280;50072;50.678;13.938;2023-03-23T11:52:49;98801.22;;;16.54;53.14
63903;BME280;50072;50.678;13.938;2023-03-23T11:55:23;98804.59;;;16.43;53.38
63903;BME280;50072;50.678;13.938;2023-03-23T11:57:52;98805.09;;;16.35;53.36
63903;BME280;50072;50.678;13.938;2023-03-23T12:00:23;98798.34;;;16.28;54.16
63903;BME280;50072;50.678;13.938;2023-03-23T12:05:59;98809.22;;;15.98;55.09
63903;BME280;50072;50.678;13.938;2023-03-23T12:14:01;98810.66;;;15.89;56.10
63903;BME280;50072;50.678;13.938;2023-03-23T12:17:14;98811.00;;;15.83;56.37
63903;BME280;50072;50.678;13.938;2023-03-23T12:20:16;98800.22;;;15.83;55.95
63903;BME280;50072;50.678;13.938;2023-03-23T12:26:30;98799.84;;;15.89;55.80
63903;BME280;50072;50.678;13.938;2023-03-23T12:28:59;98803.69;;;15.85;55.72
63903;BME280;50072;50.678;13.938;2023-03-23T12:36:58;98798.31;;;15.85;55.08
63903;BME280;50072;50.678;13.938;2023-03-23T12:40:04;98797.91;;;15.91;54.78
63903;BME280;50072;50.678;13.938;2023-03-23T12:45:21;98796.19;;;16.04;55.10
63903;BME280;50072;50.678;13.938;2023-03-23T12:48:03;98790.84;;;16.19;54.49
63903;BME280;50072;50.678;13.938;2023-03-23T12:50:39;98793.53;;;16.19;55.05
63903;BME280;50072;50.678;13.938;2023-03-23T12:53:21;98786.50;;;16.16;55.14
63903;BME280;50072;50.678;13.938;2023-03-23T12:56:16;98784.94;;;16.12;54.94
63903;BME280;50072;50.678;13.938;2023-03-23T12:58:47;98782.34;;;16.39;55.14
63903;BME280;50072;50.678;13.938;2023-03-23T13:01:22;98783.97;;;16.56;54.83
63903;BME280;50072;50.678;13.938;2023-03-23T13:11:58;98796.25;;;16.33;55.44
63903;BME280;50072;50.678;13.938;2023-03-23T13:23:08;98808.56;;;16.23;55.39
63903;BME280;50072;50.678;13.938;2023-03-23T13:25:56;98813.09;;;16.22;55.54
63903;BME280;50072;50.678;13.938;2023-03-23T13:28:51;98827.09;;;16.15;55.96
63903;BME280;50072;50.678;13.938;2023-03-23T13:31:26;98813.84;;;16.10;55.25
63903;BME280;50072;50.678;13.938;2023-03-23T13:34:25;98797.50;;;16.28;55.30
63903;BME280;50072;50.678;13.938;2023-03-23T13:37:24;98814.16;;;16.20;55.57
63903;BME280;50072;50.678;13.938;2023-03-23T13:42:51;98797.94;;;16.20;55.29
63903;BME280;50072;50.678;13.938;2023-03-23T13:45:46;98798.16;;;16.17;55.70
63903;BME280;50072;50.678;13.938;2023-03-23T13:51:01;98794.09;;;16.10;55.91
63903;BME280;50072;50.678;13.938;2023-03-23T13:53:46;98788.69;;;16.24;55.44
63903;BME280;50072;50.678;13.938;2023-03-23T13:58:50;98780.03;;;16.19;55.76
63903;BME280;50072;50.678;13.938;2023-03-23T14:01:34;98791.41;;;16.24;55.60
63903;BME280;50072;50.678;13.938;2023-03-23T14:04:15;98772.69;;;16.21;55.03
63903;BME280;50072;50.678;13.938;2023-03-23T14:06:44;98778.59;;;16.28;55.74
63903;BME280;50072;50.678;13.938;2023-03-23T14:09:33;98772.50;;;16.10;56.02
63903;BME280;50072;50.678;13.938;2023-03-23T14:12:03;98776.75;;;16.14;55.52
63903;BME280;50072;50.678;13.938;2023-03-23T14:14:44;98776.75;;;16.14;55.98
63903;BME280;50072;50.678;13.938;2023-03-23T14:17:22;98787.84;;;16.09;55.05
63903;BME280;50072;50.678;13.938;2023-03-23T14:19:55;98784.34;;;15.93;55.91
63903;BME280;50072;50.678;13.938;2023-03-23T14:22:32;98785.56;;;15.87;56.55
63903;BME280;50072;50.678;13.938;2023-03-23T14:25:16;98780.72;;;15.78;56.68
63903;BME280;50072;50.678;13.938;2023-03-23T14:27:43;98778.38;;;15.71;57.15
63903;BME280;50072;50.678;13.938;2023-03-23T14:30:18;98774.41;;;15.63;57.57
63903;BME280;50072;50.678;13.938;2023-03-23T14:32:45;98780.31;;;15.69;57.86
63903;BME280;50072;50.678;13.938;2023-03-23T14:35:36;98768.81;;;15.82;57.11
63903;BME280;50072;50.678;13.938;2023-03-23T14:38:16;98758.50;;;16.03;56.33
63903;BME280;50072;50.678;13.938;2023-03-23T14:40:44;98763.34;;;16.12;55.56
63903;BME280;50072;50.678;13.938;2023-03-23T14:43:14;98768.03;;;15.94;56.33
63903;BME280;50072;50.678;13.938;2023-03-23T14:45:43;98782.97;;;15.85;56.64
63903;BME280;50072;50.678;13.938;2023-03-23T14:48:13;98780.38;;;15.84;56.63
63903;BME280;50072;50.678;13.938;2023-03-23T14:50:56;98769.56;;;15.84;56.99
63903;BME280;50072;50.678;13.938;2023-03-23T14:53:43;98760.16;;;15.91;56.75
63903;BME280;50072;50.678;13.938;2023-03-23T14:56:15;98760.53;;;15.85;56.88
63903;BME280;50072;50.678;13.938;2023-03-23T14:58:47;98757.22;;;15.80;57.07
63903;BME280;50072;50.678;13.938;2023-03-23T15:01:41;98761.88;;;15.92;56.16
63903;BME280;50072;50.678;13.938;2023-03-23T15:04:19;98772.69;;;15.92;56.67
63903;BME280;50072;50.678;13.938;2023-03-23T15:07:00;98766.50;;;15.90;56.90